Time;durP1;ratioP1;P1;durP2;ratioP2;P2;SDS_P1;SDS_P2;PMS_P1;PMS_P2;Temp;Humidity;BMP_temperature;BMP_pressure;BME280_temperature;BME280_humidity;BME280_pressure;Samples;Min_cycle;Max_cycle;Signal;HPM_P1;HPM_P2
2021/06/18 00:00:33;;;;;;;;;;;;;;;23.41;60.08;101175.94;5139524;27;1153;-62
2021/06/18 00:02:58;;;;;;;;;;;;;;;23.64;59.30;101189.69;5155487;27;1894;-61
2021/06/18 00:05:26;;;;;;;;;;;;;;;24.04;58.08;101182.31;5155559;27;1307;-61
2021/06/18 00:07:51;;;;;;;;;;;;;;;23.69;59.33;101179.09;5155960;27;1338;-61
2021/06/18 00:10:16;;;;;;;;;;;;;;;23.96;58.28;101163.31;5155749;27;1227;-62
2021/06/18 00:12:41;;;;;;;;;;;;;;;23.85;58.91;101162.69;5155963;27;1130;-62
2021/06/18 00:15:06;;;;;;;;;;;;;;;24.10;57.75;101165.28;5145956;27;1610;-61
2021/06/18 00:17:31;;;;;;;;;;;;;;;23.83;58.79;101161.16;5147820;27;1146;-62
2021/06/18 00:19:56;;;;;;;;;;;;;;;23.82;59.11;101163.06;5139511;27;1291;-62
2021/06/18 00:22:21;;;;;;;;;;;;;;;23.99;58.56;101172.00;5150773;27;1970;-62
2021/06/18 00:24:46;;;;;;;;;;;;;;;24.09;58.28;101174.47;5149209;27;1368;-62
2021/06/18 00:27:12;;;;;;;;;;;;;;;23.73;59.39;101164.13;5145839;27;1032;-62
2021/06/18 00:29:37;;;;;;;;;;;;;;;24.01;58.16;101175.34;5159535;27;1030;-62
2021/06/18 00:32:02;;;;;;;;;;;;;;;23.86;58.72;101164.38;5159490;27;1091;-61
2021/06/18 00:34:27;;;;;;;;;;;;;;;24.22;57.63;101170.13;5158892;27;1513;-60
2021/06/18 00:36:52;;;;;;;;;;;;;;;24.16;57.96;101164.56;5159263;27;1212;-61
2021/06/18 00:39:17;;;;;;;;;;;;;;;24.25;57.78;101158.06;5159727;27;1288;-61
2021/06/18 00:41:42;;;;;;;;;;;;;;;24.50;56.88;101158.72;5159014;27;1952;-61
2021/06/18 00:44:07;;;;;;;;;;;;;;;24.47;56.64;101151.75;5159100;27;1031;-62
2021/06/18 00:46:32;;;;;;;;;;;;;;;24.11;58.28;101147.91;5158939;27;1164;-61
2021/06/18 00:48:57;;;;;;;;;;;;;;;24.18;58.12;101148.91;5159114;27;1087;-61
2021/06/18 00:51:23;;;;;;;;;;;;;;;23.93;58.67;101137.31;5159425;27;1276;-61
2021/06/18 00:53:49;;;;;;;;;;;;;;;24.02;58.51;101138.09;5158809;27;1584;-61
2021/06/18 00:56:14;;;;;;;;;;;;;;;24.26;57.68;101137.97;5141879;27;1170;-61
2021/06/18 00:58:39;;;;;;;;;;;;;;;24.47;56.97;101137.28;5153868;27;1320;-60
2021/06/18 01:01:04;;;;;;;;;;;;;;;24.10;58.15;101129.88;5146877;27;1959;-61
2021/06/18 01:03:29;;;;;;;;;;;;;;;24.09;58.08;101122.72;5158591;27;1268;-60
2021/06/18 01:05:54;;;;;;;;;;;;;;;24.01;58.72;101122.78;5158705;27;1739;-60
2021/06/18 01:08:19;;;;;;;;;;;;;;;24.15;57.82;101125.59;5158834;27;1074;-61
2021/06/18 01:10:44;;;;;;;;;;;;;;;24.38;57.43;101122.88;5158837;27;1169;-61
2021/06/18 01:13:09;;;;;;;;;;;;;;;24.45;57.39;101128.44;5158033;27;1325;-61
2021/06/18 01:15:34;;;;;;;;;;;;;;;23.97;58.85;101126.91;5145695;27;1201;-61
2021/06/18 01:18:00;;;;;;;;;;;;;;;23.65;59.93;101117.88;5154612;27;1120;-61
2021/06/18 01:20:25;;;;;;;;;;;;;;;23.87;59.14;101125.25;5141356;27;1272;-61
2021/06/18 01:22:51;;;;;;;;;;;;;;;24.04;58.28;101116.97;5139495;27;1906;-61
2021/06/18 01:25:16;;;;;;;;;;;;;;;24.08;58.63;101119.16;5158469;27;1227;-61
2021/06/18 01:27:41;;;;;;;;;;;;;;;23.81;58.93;101116.97;5158319;27;1307;-61
2021/06/18 01:30:06;;;;;;;;;;;;;;;24.12;58.03;101117.78;5151025;27;1380;-61
2021/06/18 01:32:31;;;;;;;;;;;;;;;24.01;58.35;101115.44;5148963;27;1574;-61
2021/06/18 01:34:56;;;;;;;;;;;;;;;24.24;57.48;101118.22;5158263;27;1187;-61
2021/06/18 01:37:21;;;;;;;;;;;;;;;24.19;57.70;101135.06;5157883;27;1260;-61
2021/06/18 01:39:46;;;;;;;;;;;;;;;23.97;58.40;101137.81;5157318;27;1250;-61
2021/06/18 01:42:11;;;;;;;;;;;;;;;24.03;58.19;101137.06;5158134;27;1897;-61
2021/06/18 01:44:36;;;;;;;;;;;;;;;23.97;58.00;101148.69;5158128;27;1125;-60
2021/06/18 01:47:01;;;;;;;;;;;;;;;24.19;57.28;101159.59;5158270;27;1541;-62
2021/06/18 01:49:26;;;;;;;;;;;;;;;24.01;58.04;101163.63;5157383;27;1482;-61
2021/06/18 01:51:52;;;;;;;;;;;;;;;24.17;57.58;101142.59;5157878;27;1204;-61
2021/06/18 01:54:17;;;;;;;;;;;;;;;24.22;57.14;101131.13;5157688;27;1173;-61
2021/06/18 01:56:42;;;;;;;;;;;;;;;24.17;57.48;101139.03;5157782;27;1270;-61
2021/06/18 01:59:07;;;;;;;;;;;;;;;23.85;58.08;101135.47;5150216;27;1540;-62
2021/06/18 02:01:32;;;;;;;;;;;;;;;24.10;57.25;101146.22;5149651;27;1968;-62
2021/06/18 02:03:57;;;;;;;;;;;;;;;24.28;56.87;101144.06;5141420;27;1117;-62
2021/06/18 02:06:22;;;;;;;;;;;;;;;24.36;56.58;101146.75;5156376;27;1295;-61
2021/06/18 02:08:47;;;;;;;;;;;;;;;24.37;56.54;101145.69;5156934;27;1414;-62
2021/06/18 02:11:12;;;;;;;;;;;;;;;24.38;56.70;101141.94;5147382;27;1690;-62
2021/06/18 02:13:38;;;;;;;;;;;;;;;24.40;56.03;101137.16;5150373;27;1174;-62
2021/06/18 02:16:03;;;;;;;;;;;;;;;24.39;56.51;101129.16;5157533;27;1109;-62
2021/06/18 02:18:28;;;;;;;;;;;;;;;24.38;55.97;101117.44;5150225;27;1294;-62
2021/06/18 02:20:53;;;;;;;;;;;;;;;24.37;55.99;101118.44;5146967;27;1585;-61
2021/06/18 02:23:18;;;;;;;;;;;;;;;24.40;56.12;101128.13;5157211;27;1910;-62
2021/06/18 02:25:43;;;;;;;;;;;;;;;24.41;56.13;101124.38;5157249;27;1150;-62
2021/06/18 02:28:08;;;;;;;;;;;;;;;24.34;55.96;101118.84;5157276;27;1266;-62
2021/06/18 02:30:33;;;;;;;;;;;;;;;24.27;56.44;101120.59;5156893;27;1685;-62
2021/06/18 02:32:58;;;;;;;;;;;;;;;24.34;56.01;101124.28;5157180;27;1097;-62
2021/06/18 02:35:24;;;;;;;;;;;;;;;24.36;55.97;101132.28;5157021;27;1133;-62
2021/06/18 02:37:49;;;;;;;;;;;;;;;24.35;56.33;101120.53;5156733;27;1070;-62
2021/06/18 02:40:14;;;;;;;;;;;;;;;24.34;56.41;101107.09;5156950;27;1125;-62
2021/06/18 02:42:39;;;;;;;;;;;;;;;24.33;56.00;101100.81;5151600;27;1897;-62
2021/06/18 02:45:04;;;;;;;;;;;;;;;24.35;56.39;101117.81;5144965;27;1346;-62
2021/06/18 02:47:29;;;;;;;;;;;;;;;24.38;55.91;101125.59;5156689;27;1089;-61
2021/06/18 02:49:54;;;;;;;;;;;;;;;24.37;55.82;101128.50;5156246;27;1655;-61
2021/06/18 02:52:19;;;;;;;;;;;;;;;24.40;55.80;101128.13;5156613;27;1121;-61
2021/06/18 02:54:44;;;;;;;;;;;;;;;24.39;56.05;101130.03;5156750;27;1292;-61
2021/06/18 02:57:09;;;;;;;;;;;;;;;24.20;56.43;101130.47;5156741;27;1256;-61
2021/06/18 02:59:34;;;;;;;;;;;;;;;24.22;56.55;101134.72;5156615;27;1019;-61
2021/06/18 03:02:00;;;;;;;;;;;;;;;24.31;56.21;101132.81;5156436;27;1913;-61
2021/06/18 03:04:26;;;;;;;;;;;;;;;24.33;56.04;101140.81;5156508;27;1304;-60
2021/06/18 03:06:51;;;;;;;;;;;;;;;24.31;55.95;101141.00;5156343;27;1062;-61
2021/06/18 03:09:16;;;;;;;;;;;;;;;24.34;55.77;101148.81;5156306;27;1874;-61
2021/06/18 03:11:41;;;;;;;;;;;;;;;24.35;55.73;101152.38;5156390;27;1082;-60
2021/06/18 03:14:07;;;;;;;;;;;;;;;24.37;56.05;101169.38;5156257;27;1240;-60
2021/06/18 03:16:32;;;;;;;;;;;;;;;24.36;55.74;101182.16;5156407;27;1051;-61
2021/06/18 03:18:57;;;;;;;;;;;;;;;24.18;56.56;101185.13;5156278;27;1229;-61
2021/06/18 03:21:22;;;;;;;;;;;;;;;23.77;57.73;101191.84;5156080;27;1909;-60
2021/06/18 03:23:47;;;;;;;;;;;;;;;23.49;59.08;101207.69;5156356;27;1188;-60
2021/06/18 03:26:12;;;;;;;;;;;;;;;23.33;59.79;101215.91;5156189;27;1209;-60
2021/06/18 03:28:37;;;;;;;;;;;;;;;23.69;58.39;101228.06;5154662;27;1572;-60
2021/06/18 03:31:04;;;;;;;;;;;;;;;23.53;59.11;101230.84;5155970;27;1581;-60
2021/06/18 03:33:29;;;;;;;;;;;;;;;23.31;60.01;101224.25;5153121;27;1574;-60
2021/06/18 03:35:54;;;;;;;;;;;;;;;23.66;59.04;101222.13;5140184;27;1232;-60
2021/06/18 03:38:19;;;;;;;;;;;;;;;23.84;58.19;101237.19;5154438;27;1521;-59
2021/06/18 03:40:44;;;;;;;;;;;;;;;23.75;58.93;101251.88;5155873;27;1085;-60
2021/06/18 03:43:09;;;;;;;;;;;;;;;23.94;57.90;101247.06;5155694;27;1922;-59
2021/06/18 03:45:34;;;;;;;;;;;;;;;24.06;57.74;101261.97;5156236;27;1149;-60
2021/06/18 03:48:00;;;;;;;;;;;;;;;24.12;57.33;101269.44;5155644;27;1308;-61
2021/06/18 03:50:25;;;;;;;;;;;;;;;24.16;57.54;101270.78;5155750;27;1256;-60
2021/06/18 03:52:50;;;;;;;;;;;;;;;24.18;57.23;101266.00;5155883;27;1160;-60
2021/06/18 03:55:15;;;;;;;;;;;;;;;24.18;57.34;101245.03;5156312;27;1194;-61
2021/06/18 03:57:40;;;;;;;;;;;;;;;24.15;57.92;101206.44;5155750;27;1561;-61
2021/06/18 04:00:05;;;;;;;;;;;;;;;24.13;58.15;101203.03;5155710;27;1455;-62
2021/06/18 04:02:30;;;;;;;;;;;;;;;24.13;58.02;101227.56;5157685;27;1957;-62
2021/06/18 04:04:55;;;;;;;;;;;;;;;24.17;58.18;101245.25;5160038;27;1105;-63
2021/06/18 04:07:21;;;;;;;;;;;;;;;23.97;58.98;101249.41;5159168;27;1331;-63
2021/06/18 04:09:46;;;;;;;;;;;;;;;24.05;58.44;101252.09;5145322;27;1293;-63
2021/06/18 04:12:11;;;;;;;;;;;;;;;24.11;58.33;101254.97;5157366;27;1339;-62
2021/06/18 04:14:36;;;;;;;;;;;;;;;24.14;58.02;101257.34;5159572;27;1049;-63
2021/06/18 04:17:01;;;;;;;;;;;;;;;24.13;58.02;101262.97;5159934;27;1266;-62
2021/06/18 04:19:26;;;;;;;;;;;;;;;24.11;58.22;101262.28;5159783;27;1261;-62
2021/06/18 04:21:51;;;;;;;;;;;;;;;24.16;58.03;101255.28;5159642;27;1960;-61
2021/06/18 04:24:16;;;;;;;;;;;;;;;24.16;58.01;101259.88;5159487;27;1140;-62
2021/06/18 04:26:41;;;;;;;;;;;;;;;24.16;58.19;101263.47;5159623;27;1027;-62
2021/06/18 04:29:06;;;;;;;;;;;;;;;24.18;58.33;101269.53;5150145;27;1615;-62
2021/06/18 04:31:32;;;;;;;;;;;;;;;24.18;58.66;101266.00;5151093;27;1510;-60
2021/06/18 04:33:57;;;;;;;;;;;;;;;24.15;59.03;101266.34;5159605;27;802;-59
2021/06/18 04:36:22;;;;;;;;;;;;;;;24.10;58.93;101258.72;5159109;27;1460;-59
2021/06/18 04:38:47;;;;;;;;;;;;;;;24.11;59.06;101254.97;5151245;27;1595;-59
2021/06/18 04:41:12;;;;;;;;;;;;;;;24.13;59.14;101262.97;5158949;27;1901;-60
2021/06/18 04:43:37;;;;;;;;;;;;;;;24.16;58.90;101262.59;5159312;27;1133;-61
2021/06/18 04:46:02;;;;;;;;;;;;;;;24.16;59.03;101262.59;5150676;27;1387;-60
2021/06/18 04:48:28;;;;;;;;;;;;;;;24.13;58.88;101255.63;5156396;27;1327;-60
2021/06/18 04:50:53;;;;;;;;;;;;;;;24.12;58.99;101244.91;5144152;27;1659;-61
2021/06/18 04:53:18;;;;;;;;;;;;;;;23.94;59.70;101230.72;5149171;27;1279;-60
2021/06/18 04:55:43;;;;;;;;;;;;;;;23.74;60.77;101230.28;5141421;27;1569;-58
2021/06/18 04:58:09;;;;;;;;;;;;;;;23.68;59.99;101229.09;5155323;27;1268;-59
2021/06/18 05:00:34;;;;;;;;;;;;;;;23.60;60.59;101231.88;5153044;27;1655;-59
2021/06/18 05:02:59;;;;;;;;;;;;;;;23.57;61.43;101243.09;5155573;27;1897;-59
2021/06/18 05:05:24;;;;;;;;;;;;;;;23.53;61.44;101244.47;5149509;27;1360;-59
2021/06/18 05:07:49;;;;;;;;;;;;;;;23.52;62.37;101240.03;5157130;27;1240;-59
2021/06/18 05:10:14;;;;;;;;;;;;;;;23.57;61.88;101232.22;5141383;27;1162;-58
2021/06/18 05:12:40;;;;;;;;;;;;;;;23.57;61.84;101226.78;5157515;27;1231;-59
2021/06/18 05:15:05;;;;;;;;;;;;;;;23.59;61.79;101232.88;5153860;27;1377;-58
2021/06/18 05:17:30;;;;;;;;;;;;;;;23.57;61.99;101240.38;5150749;27;1192;-59
2021/06/18 05:19:55;;;;;;;;;;;;;;;23.58;61.83;101236.63;5157805;27;1469;-59
2021/06/18 05:22:20;;;;;;;;;;;;;;;23.60;61.49;101222.84;5148978;27;1909;-58
2021/06/18 05:24:45;;;;;;;;;;;;;;;23.31;62.37;101231.53;5152871;27;1209;-58
2021/06/18 05:27:10;;;;;;;;;;;;;;;23.08;63.39;101232.28;5156881;27;1535;-59
2021/06/18 05:29:36;;;;;;;;;;;;;;;22.93;63.67;101225.00;5145786;27;1447;-59
2021/06/18 05:32:01;;;;;;;;;;;;;;;22.60;65.07;101224.94;5153585;27;1206;-59
2021/06/18 05:34:26;;;;;;;;;;;;;;;22.46;65.78;101210.16;5148161;27;1109;-58
2021/06/18 05:36:51;;;;;;;;;;;;;;;22.29;66.76;101196.72;5155720;27;1193;-59
2021/06/18 05:39:16;;;;;;;;;;;;;;;22.14;67.28;101175.66;5154421;27;1264;-59
2021/06/18 05:41:41;;;;;;;;;;;;;;;22.05;67.61;101171.22;5153829;27;1994;-59
2021/06/18 05:44:06;;;;;;;;;;;;;;;21.93;67.93;101167.09;5157209;27;1348;-59
2021/06/18 05:46:31;;;;;;;;;;;;;;;21.93;67.92;101156.22;5150039;27;1240;-58
2021/06/18 05:48:56;;;;;;;;;;;;;;;21.78;68.70;101152.47;5151078;27;1338;-59
2021/06/18 05:51:21;;;;;;;;;;;;;;;21.82;68.72;101145.69;5146386;27;1268;-59
2021/06/18 05:53:46;;;;;;;;;;;;;;;21.81;68.22;101142.13;5149550;27;1407;-58
2021/06/18 05:56:11;;;;;;;;;;;;;;;22.01;67.67;101126.44;5148040;27;1588;-57
2021/06/18 05:58:37;;;;;;;;;;;;;;;21.94;68.14;101119.09;5154208;27;1514;-59
2021/06/18 06:01:02;;;;;;;;;;;;;;;21.70;68.45;101118.00;5151085;27;1080;-58
2021/06/18 06:03:27;;;;;;;;;;;;;;;21.46;69.79;101115.22;5149014;27;1955;-59
2021/06/18 06:05:52;;;;;;;;;;;;;;;21.72;68.21;101110.56;5142444;27;1749;-60
2021/06/18 06:08:17;;;;;;;;;;;;;;;21.72;68.52;101109.69;5156361;27;1628;-60
2021/06/18 06:10:42;;;;;;;;;;;;;;;21.69;68.17;101126.31;5152365;27;1567;-60
2021/06/18 06:13:07;;;;;;;;;;;;;;;21.62;68.75;101115.28;5146105;27;1604;-60
2021/06/18 06:15:32;;;;;;;;;;;;;;;21.66;68.89;101126.66;5158185;27;1427;-60
2021/06/18 06:17:57;;;;;;;;;;;;;;;21.84;67.40;101119.25;5158049;27;1500;-60
2021/06/18 06:20:22;;;;;;;;;;;;;;;22.11;66.87;101112.69;5138698;27;1319;-60
2021/06/18 06:22:48;;;;;;;;;;;;;;;22.26;66.08;101097.44;5149988;27;1905;-60
2021/06/18 06:25:13;;;;;;;;;;;;;;;21.85;67.45;101091.09;5146084;27;1251;-60
2021/06/18 06:27:38;;;;;;;;;;;;;;;22.08;66.87;101091.31;5153117;27;1054;-60
2021/06/18 06:30:03;;;;;;;;;;;;;;;22.04;66.56;101088.09;5151851;27;1347;-59
2021/06/18 06:32:28;;;;;;;;;;;;;;;22.09;66.89;101088.44;5153558;27;1276;-60
2021/06/18 06:34:53;;;;;;;;;;;;;;;21.99;66.58;101106.72;5151625;27;1549;-59
2021/06/18 06:37:18;;;;;;;;;;;;;;;22.16;65.93;101119.34;5152481;27;1501;-59
2021/06/18 06:39:43;;;;;;;;;;;;;;;22.55;64.68;101129.53;5144737;27;1603;-59
2021/06/18 06:42:08;;;;;;;;;;;;;;;22.25;65.78;101131.03;5154590;27;1894;-60
2021/06/18 06:44:33;;;;;;;;;;;;;;;22.22;66.23;101128.66;5147184;27;1528;-60
2021/06/18 06:46:59;;;;;;;;;;;;;;;22.13;66.24;101124.25;5152252;27;1247;-60
2021/06/18 06:49:25;;;;;;;;;;;;;;;22.26;66.00;101112.88;5153771;27;1381;-61
2021/06/18 06:51:50;;;;;;;;;;;;;;;22.43;65.35;101109.16;5156496;27;1142;-62
2021/06/18 06:54:15;;;;;;;;;;;;;;;22.24;66.34;101101.34;5156292;27;1008;-59
2021/06/18 06:56:40;;;;;;;;;;;;;;;22.38;65.48;101106.97;5156547;27;1280;-60
2021/06/18 06:59:05;;;;;;;;;;;;;;;22.29;66.45;101115.25;5156724;27;1234;-60
2021/06/18 07:01:30;;;;;;;;;;;;;;;21.99;67.62;101109.44;5155522;27;1893;-60
2021/06/18 07:03:55;;;;;;;;;;;;;;;21.99;67.44;101109.44;5156380;27;1305;-60
2021/06/18 07:06:21;;;;;;;;;;;;;;;22.06;67.34;101115.06;5155909;27;1505;-60
2021/06/18 07:08:46;;;;;;;;;;;;;;;22.09;67.51;101118.28;5156259;27;1287;-60
2021/06/18 07:11:11;;;;;;;;;;;;;;;22.39;66.46;101122.22;5156295;27;1095;-60
2021/06/18 07:13:36;;;;;;;;;;;;;;;22.45;66.24;101134.28;5156459;27;1123;-60
2021/06/18 07:16:01;;;;;;;;;;;;;;;22.48;66.25;101134.78;5156345;27;1460;-60
2021/06/18 07:18:26;;;;;;;;;;;;;;;22.43;66.47;101114.56;5156033;27;1380;-60
2021/06/18 07:20:51;;;;;;;;;;;;;;;22.29;66.96;101117.97;5155542;27;1311;-60
2021/06/18 07:23:17;;;;;;;;;;;;;;;22.15;67.61;101114.06;5155807;27;1992;-59
2021/06/18 07:25:42;;;;;;;;;;;;;;;22.41;66.68;101114.75;5155820;27;1342;-60
2021/06/18 07:28:07;;;;;;;;;;;;;;;22.21;67.48;101124.25;5137353;27;1058;-60
2021/06/18 07:30:33;;;;;;;;;;;;;;;22.17;68.24;101131.03;5157443;27;1648;-60
2021/06/18 07:32:58;;;;;;;;;;;;;;;22.51;66.92;101133.59;5151884;27;1340;-59
2021/06/18 07:35:23;;;;;;;;;;;;;;;22.17;68.24;101131.03;5146136;27;1448;-59
2021/06/18 07:37:48;;;;;;;;;;;;;;;22.06;68.78;101134.06;5152121;27;1511;-60
2021/06/18 07:40:13;;;;;;;;;;;;;;;21.90;69.15;101134.84;5151240;27;1327;-60
2021/06/18 07:42:38;;;;;;;;;;;;;;;21.91;69.54;101132.97;5150166;27;1890;-60
2021/06/18 07:45:04;;;;;;;;;;;;;;;21.90;68.81;101134.84;5140517;27;1292;-61
2021/06/18 07:47:29;;;;;;;;;;;;;;;21.77;69.08;101138.03;5138187;27;1032;-60
2021/06/18 07:49:54;;;;;;;;;;;;;;;21.79;69.39;101132.44;5153674;27;1095;-58
2021/06/18 07:52:19;;;;;;;;;;;;;;;22.03;68.03;101134.41;5141438;27;1436;-60
2021/06/18 07:54:45;;;;;;;;;;;;;;;22.04;67.79;101136.09;5155477;27;1281;-60
2021/06/18 07:57:12;;;;;;;;;;;;;;;22.09;67.47;101137.28;5148529;27;1248;-60
2021/06/18 07:59:37;;;;;;;;;;;;;;;22.09;68.02;101144.59;5145566;27;1295;-60
2021/06/18 08:02:02;;;;;;;;;;;;;;;22.32;67.05;101132.06;5151935;27;1966;-61
2021/06/18 08:04:27;;;;;;;;;;;;;;;22.13;67.70;101129.66;5155638;27;1299;-60
2021/06/18 08:06:52;;;;;;;;;;;;;;;22.45;66.69;101129.69;5155672;27;1060;-60
2021/06/18 08:09:17;;;;;;;;;;;;;;;22.61;66.40;101126.13;5151507;27;1564;-60
2021/06/18 08:11:42;;;;;;;;;;;;;;;22.57;66.43;101119.34;5141588;27;1374;-61
2021/06/18 08:14:07;;;;;;;;;;;;;;;22.49;67.06;101109.31;5152583;27;1193;-61
2021/06/18 08:16:33;;;;;;;;;;;;;;;22.56;66.69;101108.66;5155776;27;1421;-61
2021/06/18 08:18:58;;;;;;;;;;;;;;;22.17;68.22;101112.03;5155535;27;1180;-60
2021/06/18 08:21:23;;;;;;;;;;;;;;;22.17;68.26;101106.59;5155054;27;1921;-61
2021/06/18 08:23:48;;;;;;;;;;;;;;;22.22;68.33;101096.06;5155415;27;1221;-61
2021/06/18 08:26:13;;;;;;;;;;;;;;;22.37;67.54;101088.97;5145540;27;1317;-61
2021/06/18 08:28:38;;;;;;;;;;;;;;;22.46;67.89;101085.22;5140245;27;1580;-61
2021/06/18 08:31:04;;;;;;;;;;;;;;;22.47;67.67;101076.03;5143569;27;1246;-61
2021/06/18 08:33:30;;;;;;;;;;;;;;;22.43;67.83;101063.81;5143224;27;1276;-61
2021/06/18 08:35:55;;;;;;;;;;;;;;;22.36;67.98;101070.97;5135071;28;791;-61
2021/06/18 08:38:20;;;;;;;;;;;;;;;22.57;67.72;101066.88;5154182;27;1305;-61
2021/06/18 08:40:46;;;;;;;;;;;;;;;22.42;67.67;101064.00;5149822;27;1610;-61
2021/06/18 08:43:11;;;;;;;;;;;;;;;22.49;68.11;101068.59;5154616;27;1905;-61
2021/06/18 08:45:36;;;;;;;;;;;;;;;22.74;67.93;101074.84;5154519;27;1291;-61
2021/06/18 08:48:02;;;;;;;;;;;;;;;22.77;67.67;101076.38;5148858;27;1317;-62
2021/06/18 08:50:27;;;;;;;;;;;;;;;22.84;68.21;101071.94;5141706;27;1354;-61
2021/06/18 08:52:52;;;;;;;;;;;;;;;22.76;67.71;101071.91;5152119;27;1140;-59
2021/06/18 08:55:18;;;;;;;;;;;;;;;22.66;67.91;101066.69;5149191;27;1213;-60
2021/06/18 08:57:43;;;;;;;;;;;;;;;22.71;67.78;101068.91;5158921;27;1038;-61
2021/06/18 09:00:08;;;;;;;;;;;;;;;22.73;68.19;101066.84;5158249;27;1247;-61
2021/06/18 09:02:33;;;;;;;;;;;;;;;22.68;67.95;101052.94;5148819;27;2740;-61
2021/06/18 09:04:58;;;;;;;;;;;;;;;22.66;68.16;101031.38;5147899;27;1346;-61
2021/06/18 09:07:23;;;;;;;;;;;;;;;22.55;68.23;101045.31;5158021;27;1426;-61
2021/06/18 09:09:48;;;;;;;;;;;;;;;22.48;68.30;101047.03;5157385;27;1410;-61
2021/06/18 09:12:15;;;;;;;;;;;;;;;22.60;67.86;101050.22;5147711;27;1415;-61
2021/06/18 09:14:40;;;;;;;;;;;;;;;22.57;68.05;101051.44;5156216;27;1624;-61
2021/06/18 09:17:06;;;;;;;;;;;;;;;22.43;68.76;101043.97;5150991;27;1514;-61
2021/06/18 09:19:31;;;;;;;;;;;;;;;22.71;67.66;101053.44;5144039;27;1522;-60
2021/06/18 09:21:56;;;;;;;;;;;;;;;23.00;66.83;101055.59;5146553;27;1890;-61
2021/06/18 09:24:21;;;;;;;;;;;;;;;22.87;66.79;101044.44;5152002;27;1258;-61
2021/06/18 09:26:46;;;;;;;;;;;;;;;22.84;67.09;101050.19;5153050;27;1678;-60
2021/06/18 09:29:11;;;;;;;;;;;;;;;22.73;67.14;101050.56;5148855;27;1614;-61
2021/06/18 09:31:36;;;;;;;;;;;;;;;23.06;65.82;101035.88;5153769;27;1044;-61
2021/06/18 09:34:03;;;;;;;;;;;;;;;23.04;65.89;101039.78;5149098;27;1542;-61
2021/06/18 09:36:28;;;;;;;;;;;;;;;22.86;66.24;101034.56;5149786;27;1319;-61
2021/06/18 09:38:55;;;;;;;;;;;;;;;22.77;66.54;101030.16;5143014;27;1270;-62
2021/06/18 09:41:20;;;;;;;;;;;;;;;22.81;66.08;101026.09;5139544;27;1905;-61
2021/06/18 09:43:46;;;;;;;;;;;;;;;22.96;65.90;101027.06;5153695;27;1295;-63
2021/06/18 09:46:11;;;;;;;;;;;;;;;22.98;65.65;101025.00;5157438;27;1716;-62
2021/06/18 09:48:36;;;;;;;;;;;;;;;23.19;65.04;101033.41;5157807;27;1661;-62
2021/06/18 09:51:01;;;;;;;;;;;;;;;23.21;64.85;101041.41;5147096;27;1388;-58
2021/06/18 09:53:27;;;;;;;;;;;;;;;23.21;64.17;101041.41;5144989;27;1440;-60
2021/06/18 09:55:52;;;;;;;;;;;;;;;23.20;63.67;101035.13;5146639;27;1321;-60
2021/06/18 09:58:17;;;;;;;;;;;;;;;23.14;63.95;101033.09;5146265;27;1367;-60
2021/06/18 10:00:42;;;;;;;;;;;;;;;23.22;63.65;101034.09;5157061;27;1839;-60
2021/06/18 10:03:07;;;;;;;;;;;;;;;23.21;63.42;101030.53;5157662;27;1897;-60
2021/06/18 10:05:34;;;;;;;;;;;;;;;23.28;62.90;101022.53;5157258;27;1470;-60
2021/06/18 10:07:59;;;;;;;;;;;;;;;23.23;63.17;101017.59;5141395;27;1178;-60
2021/06/18 10:10:24;;;;;;;;;;;;;;;23.32;63.09;101021.13;5149874;27;1350;-61
2021/06/18 10:12:49;;;;;;;;;;;;;;;23.48;62.33;101019.16;5144292;27;1306;-59
2021/06/18 10:15:15;;;;;;;;;;;;;;;23.50;62.18;101022.53;5145650;27;1334;-60
2021/06/18 10:17:40;;;;;;;;;;;;;;;23.55;61.78;101027.47;5142686;27;1409;-60
2021/06/18 10:20:06;;;;;;;;;;;;;;;23.50;61.69;101046.19;5144618;27;1492;-60
2021/06/18 10:22:31;;;;;;;;;;;;;;;23.53;61.78;101048.56;5141690;27;1967;-60
2021/06/18 10:24:56;;;;;;;;;;;;;;;23.57;61.81;101038.19;5142960;27;1302;-60
2021/06/18 10:27:21;;;;;;;;;;;;;;;23.57;61.71;101041.75;5142816;27;1326;-60
2021/06/18 10:29:46;;;;;;;;;;;;;;;23.64;61.79;101044.63;5156859;27;1334;-60
2021/06/18 10:32:11;;;;;;;;;;;;;;;23.63;61.95;101043.78;5145986;27;1407;-60
2021/06/18 10:34:37;;;;;;;;;;;;;;;23.67;61.75;101041.50;5145878;27;1350;-60
2021/06/18 10:37:02;;;;;;;;;;;;;;;23.71;61.99;101029.25;5148542;27;1264;-60
2021/06/18 10:39:29;;;;;;;;;;;;;;;23.84;60.92;101024.03;5155874;27;1376;-60
2021/06/18 10:41:54;;;;;;;;;;;;;;;23.89;60.79;101021.63;5157311;27;1945;-60
2021/06/18 10:44:19;;;;;;;;;;;;;;;23.98;60.18;101030.59;5156748;27;1090;-60
2021/06/18 10:46:45;;;;;;;;;;;;;;;23.92;59.51;101014.97;5152527;27;1518;-60
2021/06/18 10:49:10;;;;;;;;;;;;;;;23.99;59.72;101024.13;5147704;27;1325;-62
2021/06/18 10:51:37;;;;;;;;;;;;;;;24.13;59.74;101001.53;5143122;27;1097;-62
2021/06/18 10:54:03;;;;;;;;;;;;;;;24.28;59.63;100994.25;5145814;27;1302;-63
2021/06/18 10:56:28;;;;;;;;;;;;;;;24.35;59.39;100989.78;5145337;27;1224;-62
2021/06/18 10:58:53;;;;;;;;;;;;;;;24.43;60.03;100995.13;5148392;27;1267;-62
2021/06/18 11:01:18;;;;;;;;;;;;;;;24.47;59.55;100998.34;5151698;27;1555;-62
2021/06/18 11:03:43;;;;;;;;;;;;;;;24.53;60.08;100989.44;5140075;27;1897;-62
2021/06/18 11:06:08;;;;;;;;;;;;;;;24.59;59.66;100988.66;5144591;27;1189;-62
2021/06/18 11:08:33;;;;;;;;;;;;;;;24.62;59.79;100985.56;5156215;27;1370;-62
2021/06/18 11:10:59;;;;;;;;;;;;;;;24.66;59.54;100994.22;5156137;27;1256;-63
2021/06/18 11:13:24;;;;;;;;;;;;;;;24.71;59.55;100997.22;5156086;27;1465;-61
2021/06/18 11:15:49;;;;;;;;;;;;;;;24.74;59.38;100983.19;5156183;27;1325;-62
2021/06/18 11:18:15;;;;;;;;;;;;;;;24.79;59.70;100991.66;5152539;27;1333;-62
2021/06/18 11:20:40;;;;;;;;;;;;;;;24.81;59.84;100995.06;5144490;27;1608;-62
2021/06/18 11:23:06;;;;;;;;;;;;;;;24.84;60.11;100989.22;5156301;27;1930;-62
2021/06/18 11:25:31;;;;;;;;;;;;;;;24.87;59.96;100984.25;5149967;27;1466;-62
2021/06/18 11:27:56;;;;;;;;;;;;;;;24.92;59.45;100986.38;5145787;27;1246;-62
2021/06/18 11:30:21;;;;;;;;;;;;;;;24.93;59.52;100983.47;5151971;27;1768;-62
2021/06/18 11:32:46;;;;;;;;;;;;;;;24.98;59.82;100977.50;5165262;27;1104;-60
2021/06/18 11:35:11;;;;;;;;;;;;;;;25.00;59.57;100967.25;5140728;27;1292;-62
2021/06/18 11:37:36;;;;;;;;;;;;;;;25.01;59.75;100968.94;5140003;27;1320;-62
2021/06/18 11:40:01;;;;;;;;;;;;;;;25.04;59.85;100973.16;5122237;27;1166;-62
2021/06/18 11:42:26;;;;;;;;;;;;;;;25.10;59.49;100972.38;5155436;27;1950;-62
2021/06/18 11:44:51;;;;;;;;;;;;;;;25.11;59.91;100972.19;5155509;27;1315;-62
2021/06/18 11:47:16;;;;;;;;;;;;;;;25.13;59.78;100972.00;5155325;27;1138;-62
2021/06/18 11:49:42;;;;;;;;;;;;;;;25.15;59.56;100976.22;5155706;27;1165;-62
2021/06/18 11:52:07;;;;;;;;;;;;;;;25.17;59.42;100967.88;5155457;27;1148;-62
2021/06/18 11:54:33;;;;;;;;;;;;;;;25.19;59.88;100960.34;5155533;27;1299;-62
2021/06/18 11:56:58;;;;;;;;;;;;;;;25.24;59.83;100952.44;5151844;27;1276;-62
2021/06/18 11:59:23;;;;;;;;;;;;;;;25.26;59.56;100948.44;5142852;27;1225;-62
2021/06/18 12:01:48;;;;;;;;;;;;;;;25.27;59.67;100936.50;5147945;27;1890;-63
2021/06/18 12:04:13;;;;;;;;;;;;;;;25.32;59.76;100944.09;5142197;27;1464;-62
2021/06/18 12:06:39;;;;;;;;;;;;;;;25.31;59.90;100950.59;5146183;27;1361;-62
2021/06/18 12:09:04;;;;;;;;;;;;;;;25.34;59.63;100952.94;5137091;27;1432;-61
2021/06/18 12:11:29;;;;;;;;;;;;;;;25.37;59.85;100946.25;5149022;27;1054;-62
2021/06/18 12:13:54;;;;;;;;;;;;;;;25.41;59.88;100945.69;5155035;27;1307;-62
2021/06/18 12:16:19;;;;;;;;;;;;;;;25.45;59.26;100955.16;5147441;27;1200;-62
2021/06/18 12:18:44;;;;;;;;;;;;;;;25.46;59.71;100947.81;5145554;27;1305;-62
2021/06/18 12:21:09;;;;;;;;;;;;;;;25.45;59.51;100937.94;5147181;27;1518;-62
2021/06/18 12:23:35;;;;;;;;;;;;;;;25.47;59.53;100944.06;5153024;27;1901;-63
2021/06/18 12:26:00;;;;;;;;;;;;;;;25.48;59.46;100929.38;5159557;27;1280;-63
2021/06/18 12:28:25;;;;;;;;;;;;;;;25.53;59.33;100940.56;5155710;27;1274;-62
2021/06/18 12:30:50;;;;;;;;;;;;;;;25.56;59.79;100932.81;5144977;27;1325;-62
2021/06/18 12:33:15;;;;;;;;;;;;;;;25.59;59.65;100920.69;5148734;27;1422;-62
2021/06/18 12:35:40;;;;;;;;;;;;;;;25.61;59.76;100921.34;5148860;27;1349;-62